sensor_id;sensor_type;location;lat;lon;timestamp;temperature;humidity
55026;DHT22;40925;45.666;18.994;2023-02-28T00:00:32;26.20;2201.60
55026;DHT22;40925;45.666;18.994;2023-02-28T00:03:17;26.20;2201.60
55026;DHT22;40925;45.666;18.994;2023-02-28T00:05:43;26.20;2201.60
55026;DHT22;40925;45.666;18.994;2023-02-28T00:08:09;26.10;2201.60
55026;DHT22;40925;45.666;18.994;2023-02-28T00:10:35;26.10;2201.60
55026;DHT22;40925;45.666;18.994;2023-02-28T00:13:03;26.10;2201.60
55026;DHT22;40925;45.666;18.994;2023-02-28T00:15:30;26.10;2201.60
55026;DHT22;40925;45.666;18.994;2023-02-28T00:17:56;26.10;2201.60
55026;DHT22;40925;45.666;18.994;2023-02-28T00:20:22;26.10;2201.60
55026;DHT22;40925;45.666;18.994;2023-02-28T00:22:51;25.80;2201.60
55026;DHT22;40925;45.666;18.994;2023-02-28T00:25:19;26.00;2201.60
55026;DHT22;40925;45.666;18.994;2023-02-28T00:27:46;26.00;2201.60
55026;DHT22;40925;45.666;18.994;2023-02-28T00:30:18;26.00;2201.60
55026;DHT22;40925;45.666;18.994;2023-02-28T00:32:44;26.10;2201.60
55026;DHT22;40925;45.666;18.994;2023-02-28T00:35:10;26.10;2201.60
55026;DHT22;40925;45.666;18.994;2023-02-28T00:37:37;26.00;2201.60
55026;DHT22;40925;45.666;18.994;2023-02-28T00:40:03;26.00;2201.60
55026;DHT22;40925;45.666;18.994;2023-02-28T00:42:33;26.00;2201.60
55026;DHT22;40925;45.666;18.994;2023-02-28T00:44:59;26.00;2201.60
55026;DHT22;40925;45.666;18.994;2023-02-28T00:47:25;26.00;2201.60
55026;DHT22;40925;45.666;18.994;2023-02-28T00:50:11;25.90;2201.60
55026;DHT22;40925;45.666;18.994;2023-02-28T00:52:37;25.90;2201.60
55026;DHT22;40925;45.666;18.994;2023-02-28T00:55:03;25.90;2201.60
55026;DHT22;40925;45.666;18.994;2023-02-28T00:57:28;26.00;2201.60
55026;DHT22;40925;45.666;18.994;2023-02-28T00:59:54;26.00;2201.60
55026;DHT22;40925;45.666;18.994;2023-02-28T01:02:23;25.90;2201.60
55026;DHT22;40925;45.666;18.994;2023-02-28T01:04:49;25.90;2201.60
55026;DHT22;40925;45.666;18.994;2023-02-28T01:07:15;26.00;2201.60
55026;DHT22;40925;45.666;18.994;2023-02-28T01:09:41;26.00;2201.60
55026;DHT22;40925;45.666;18.994;2023-02-28T01:12:08;26.00;2201.60
55026;DHT22;40925;45.666;18.994;2023-02-28T01:14:34;26.00;2201.60
55026;DHT22;40925;45.666;18.994;2023-02-28T01:17:00;26.00;2201.60
55026;DHT22;40925;45.666;18.994;2023-02-28T01:19:26;26.00;2201.60
55026;DHT22;40925;45.666;18.994;2023-02-28T01:21:52;26.00;2201.60
55026;DHT22;40925;45.666;18.994;2023-02-28T01:24:18;26.00;2201.60
55026;DHT22;40925;45.666;18.994;2023-02-28T01:26:44;26.10;2201.60
55026;DHT22;40925;45.666;18.994;2023-02-28T01:29:10;26.10;2201.60
55026;DHT22;40925;45.666;18.994;2023-02-28T01:31:36;26.00;2201.60
55026;DHT22;40925;45.666;18.994;2023-02-28T01:34:02;26.00;2201.60
55026;DHT22;40925;45.666;18.994;2023-02-28T01:36:28;26.00;2201.60
55026;DHT22;40925;45.666;18.994;2023-02-28T01:38:54;26.00;2201.60
55026;DHT22;40925;45.666;18.994;2023-02-28T01:41:25;25.90;2201.60
55026;DHT22;40925;45.666;18.994;2023-02-28T01:43:57;26.00;2201.60
55026;DHT22;40925;45.666;18.994;2023-02-28T01:46:24;25.90;2201.60
55026;DHT22;40925;45.666;18.994;2023-02-28T01:51:58;26.00;2201.60
55026;DHT22;40925;45.666;18.994;2023-02-28T01:54:28;25.90;2201.60
55026;DHT22;40925;45.666;18.994;2023-02-28T01:56:58;26.00;2201.60
55026;DHT22;40925;45.666;18.994;2023-02-28T02:02:12;25.90;2201.60
55026;DHT22;40925;45.666;18.994;2023-02-28T02:04:44;25.90;2201.60
55026;DHT22;40925;45.666;18.994;2023-02-28T02:07:13;25.90;2201.60
55026;DHT22;40925;45.666;18.994;2023-02-28T02:09:39;25.80;2201.60
55026;DHT22;40925;45.666;18.994;2023-02-28T02:15:12;25.80;2201.60
55026;DHT22;40925;45.666;18.994;2023-02-28T02:17:43;25.80;2201.60
55026;DHT22;40925;45.666;18.994;2023-02-28T02:25:55;25.80;2201.60
55026;DHT22;40925;45.666;18.994;2023-02-28T02:36:38;25.70;2201.60
55026;DHT22;40925;45.666;18.994;2023-02-28T02:42:01;25.60;2201.60
55026;DHT22;40925;45.666;18.994;2023-02-28T02:44:37;25.60;2201.60
55026;DHT22;40925;45.666;18.994;2023-02-28T02:47:10;25.60;2201.60
55026;DHT22;40925;45.666;18.994;2023-02-28T02:49:59;25.60;2201.60
55026;DHT22;40925;45.666;18.994;2023-02-28T02:52:36;25.60;2201.60
55026;DHT22;40925;45.666;18.994;2023-02-28T02:55:06;25.60;2201.60
55026;DHT22;40925;45.666;18.994;2023-02-28T02:57:55;0.90;2201.60
55026;DHT22;40925;45.666;18.994;2023-02-28T03:00:27;0.90;2201.60
55026;DHT22;40925;45.666;18.994;2023-02-28T03:02:55;0.90;2201.60
55026;DHT22;40925;45.666;18.994;2023-02-28T03:05:27;0.90;2201.60
55026;DHT22;40925;45.666;18.994;2023-02-28T03:07:54;0.90;2201.60
55026;DHT22;40925;45.666;18.994;2023-02-28T03:13:17;25.60;2201.60
55026;DHT22;40925;45.666;18.994;2023-02-28T03:16:17;25.60;2201.60
55026;DHT22;40925;45.666;18.994;2023-02-28T03:27:25;25.60;2201.60
55026;DHT22;40925;45.666;18.994;2023-02-28T03:30:06;0.90;2201.60
55026;DHT22;40925;45.666;18.994;2023-02-28T03:36:12;0.90;2201.60
55026;DHT22;40925;45.666;18.994;2023-02-28T03:38:46;0.90;2201.60
55026;DHT22;40925;45.666;18.994;2023-02-28T03:41:31;0.90;2201.60
55026;DHT22;40925;45.666;18.994;2023-02-28T03:44:09;0.90;2201.60
55026;DHT22;40925;45.666;18.994;2023-02-28T03:46:44;25.60;2201.60
55026;DHT22;40925;45.666;18.994;2023-02-28T03:53:07;25.60;2201.60
55026;DHT22;40925;45.666;18.994;2023-02-28T03:55:47;25.60;2201.60
55026;DHT22;40925;45.666;18.994;2023-02-28T03:58:39;25.60;2201.60
55026;DHT22;40925;45.666;18.994;2023-02-28T04:03:39;25.60;2201.60
55026;DHT22;40925;45.666;18.994;2023-02-28T04:06:08;25.60;2201.60
55026;DHT22;40925;45.666;18.994;2023-02-28T04:08:38;25.60;2201.60
55026;DHT22;40925;45.666;18.994;2023-02-28T04:11:12;25.60;2201.60
55026;DHT22;40925;45.666;18.994;2023-02-28T04:13:40;25.60;2201.60
55026;DHT22;40925;45.666;18.994;2023-02-28T04:16:09;25.60;2201.60
55026;DHT22;40925;45.666;18.994;2023-02-28T04:18:56;25.70;2201.60
55026;DHT22;40925;45.666;18.994;2023-02-28T04:21:32;25.70;2201.60
55026;DHT22;40925;45.666;18.994;2023-02-28T04:23:59;25.60;2201.60
55026;DHT22;40925;45.666;18.994;2023-02-28T04:26:33;25.70;2201.60
55026;DHT22;40925;45.666;18.994;2023-02-28T04:28:59;25.80;2201.60
55026;DHT22;40925;45.666;18.994;2023-02-28T04:31:25;25.70;2201.60
55026;DHT22;40925;45.666;18.994;2023-02-28T04:33:52;25.80;2201.60
55026;DHT22;40925;45.666;18.994;2023-02-28T04:36:18;25.80;2201.60
55026;DHT22;40925;45.666;18.994;2023-02-28T04:38:44;25.80;2201.60
55026;DHT22;40925;45.666;18.994;2023-02-28T04:41:11;25.80;2201.60
55026;DHT22;40925;45.666;18.994;2023-02-28T04:43:37;25.90;2201.60
55026;DHT22;40925;45.666;18.994;2023-02-28T04:46:04;25.90;2201.60
55026;DHT22;40925;45.666;18.994;2023-02-28T04:48:32;25.90;2201.60
55026;DHT22;40925;45.666;18.994;2023-02-28T04:51:03;25.90;2201.60
55026;DHT22;40925;45.666;18.994;2023-02-28T04:53:30;26.00;2201.60
55026;DHT22;40925;45.666;18.994;2023-02-28T04:55:56;26.00;2201.60
55026;DHT22;40925;45.666;18.994;2023-02-28T04:58:22;25.90;2201.60
55026;DHT22;40925;45.666;18.994;2023-02-28T05:00:52;25.90;2201.60
55026;DHT22;40925;45.666;18.994;2023-02-28T05:03:18;25.90;2201.60
55026;DHT22;40925;45.666;18.994;2023-02-28T05:05:43;25.90;2201.60
55026;DHT22;40925;45.666;18.994;2023-02-28T05:08:09;25.80;2201.60
55026;DHT22;40925;45.666;18.994;2023-02-28T05:10:35;25.80;2201.60
55026;DHT22;40925;45.666;18.994;2023-02-28T05:13:01;25.80;2201.60
55026;DHT22;40925;45.666;18.994;2023-02-28T05:15:27;25.80;2201.60
55026;DHT22;40925;45.666;18.994;2023-02-28T05:17:52;25.90;2201.60
55026;DHT22;40925;45.666;18.994;2023-02-28T05:20:18;25.90;2201.60
55026;DHT22;40925;45.666;18.994;2023-02-28T05:22:44;25.80;2201.60
55026;DHT22;40925;45.666;18.994;2023-02-28T05:25:16;25.80;2201.60
55026;DHT22;40925;45.666;18.994;2023-02-28T05:27:42;25.90;2201.60
55026;DHT22;40925;45.666;18.994;2023-02-28T05:30:09;25.90;2201.60
55026;DHT22;40925;45.666;18.994;2023-02-28T05:32:37;25.90;2201.60
55026;DHT22;40925;45.666;18.994;2023-02-28T05:35:03;25.80;2201.60
55026;DHT22;40925;45.666;18.994;2023-02-28T05:37:29;25.90;2201.60
55026;DHT22;40925;45.666;18.994;2023-02-28T05:39:55;25.70;2201.60
55026;DHT22;40925;45.666;18.994;2023-02-28T05:42:21;25.80;2201.60
55026;DHT22;40925;45.666;18.994;2023-02-28T05:44:46;25.80;2201.60
55026;DHT22;40925;45.666;18.994;2023-02-28T05:47:12;25.80;2201.60
55026;DHT22;40925;45.666;18.994;2023-02-28T05:52:52;25.80;2201.60
55026;DHT22;40925;45.666;18.994;2023-02-28T05:55:18;25.80;2201.60
55026;DHT22;40925;45.666;18.994;2023-02-28T05:57:44;25.80;2201.60
55026;DHT22;40925;45.666;18.994;2023-02-28T06:00:10;25.80;2201.60
55026;DHT22;40925;45.666;18.994;2023-02-28T06:02:38;25.80;2201.60
55026;DHT22;40925;45.666;18.994;2023-02-28T06:05:04;25.80;2201.60
55026;DHT22;40925;45.666;18.994;2023-02-28T06:07:29;25.90;2201.60
55026;DHT22;40925;45.666;18.994;2023-02-28T06:09:55;25.90;2201.60
55026;DHT22;40925;45.666;18.994;2023-02-28T06:12:21;25.90;2201.60
55026;DHT22;40925;45.666;18.994;2023-02-28T06:14:46;25.90;2201.60
55026;DHT22;40925;45.666;18.994;2023-02-28T06:17:12;25.90;2201.60
55026;DHT22;40925;45.666;18.994;2023-02-28T06:19:38;26.00;2201.60
55026;DHT22;40925;45.666;18.994;2023-02-28T06:22:04;26.00;2201.60
55026;DHT22;40925;45.666;18.994;2023-02-28T06:24:30;26.00;2201.60
55026;DHT22;40925;45.666;18.994;2023-02-28T06:26:56;26.00;2201.60
55026;DHT22;40925;45.666;18.994;2023-02-28T06:29:24;26.00;2201.60
55026;DHT22;40925;45.666;18.994;2023-02-28T06:31:50;26.10;2201.60
55026;DHT22;40925;45.666;18.994;2023-02-28T06:34:21;26.20;2201.60
55026;DHT22;40925;45.666;18.994;2023-02-28T06:36:50;26.20;2201.60
55026;DHT22;40925;45.666;18.994;2023-02-28T06:39:16;26.10;2201.60
55026;DHT22;40925;45.666;18.994;2023-02-28T06:41:42;26.20;2201.60
55026;DHT22;40925;45.666;18.994;2023-02-28T06:44:15;26.20;2201.60
55026;DHT22;40925;45.666;18.994;2023-02-28T06:46:42;26.20;2201.60
55026;DHT22;40925;45.666;18.994;2023-02-28T06:49:09;26.30;2201.60
55026;DHT22;40925;45.666;18.994;2023-02-28T06:51:37;26.20;2201.60
55026;DHT22;40925;45.666;18.994;2023-02-28T06:54:05;26.20;2201.60
55026;DHT22;40925;45.666;18.994;2023-02-28T06:56:34;26.20;2201.60
55026;DHT22;40925;45.666;18.994;2023-02-28T06:59:00;26.10;2201.60
55026;DHT22;40925;45.666;18.994;2023-02-28T07:01:26;26.10;2201.60
55026;DHT22;40925;45.666;18.994;2023-02-28T07:03:54;26.20;2201.60
55026;DHT22;40925;45.666;18.994;2023-02-28T07:06:21;26.30;2201.60
55026;DHT22;40925;45.666;18.994;2023-02-28T07:08:48;26.30;2201.60
55026;DHT22;40925;45.666;18.994;2023-02-28T07:11:14;26.30;2201.60
55026;DHT22;40925;45.666;18.994;2023-02-28T07:13:40;26.40;2201.60
55026;DHT22;40925;45.666;18.994;2023-02-28T07:16:09;26.50;2201.60
55026;DHT22;40925;45.666;18.994;2023-02-28T07:18:36;26.50;2201.60
55026;DHT22;40925;45.666;18.994;2023-02-28T07:21:04;26.50;2201.60
55026;DHT22;40925;45.666;18.994;2023-02-28T07:23:30;26.40;2201.60
55026;DHT22;40925;45.666;18.994;2023-02-28T07:25:56;26.40;2201.60
55026;DHT22;40925;45.666;18.994;2023-02-28T07:28:21;26.40;2201.60
55026;DHT22;40925;45.666;18.994;2023-02-28T07:30:47;26.40;2201.60
55026;DHT22;40925;45.666;18.994;2023-02-28T07:33:13;26.50;2201.60
55026;DHT22;40925;45.666;18.994;2023-02-28T07:35:39;26.40;2201.60
55026;DHT22;40925;45.666;18.994;2023-02-28T07:40:33;51.40;2227.20
55026;DHT22;40925;45.666;18.994;2023-02-28T07:43:02;26.40;2201.60
55026;DHT22;40925;45.666;18.994;2023-02-28T07:45:29;26.40;2201.60
55026;DHT22;40925;45.666;18.994;2023-02-28T07:47:55;26.40;2201.60
55026;DHT22;40925;45.666;18.994;2023-02-28T07:58:12;51.50;2227.20
55026;DHT22;40925;45.666;18.994;2023-02-28T08:00:38;51.20;2227.20
55026;DHT22;40925;45.666;18.994;2023-02-28T08:03:04;51.20;2227.20
55026;DHT22;40925;45.666;18.994;2023-02-28T08:05:29;51.20;2227.20
55026;DHT22;40925;45.666;18.994;2023-02-28T08:07:56;51.20;2227.20
55026;DHT22;40925;45.666;18.994;2023-02-28T08:10:22;51.70;2227.20
55026;DHT22;40925;45.666;18.994;2023-02-28T08:12:49;26.50;2201.60
55026;DHT22;40925;45.666;18.994;2023-02-28T08:15:15;51.20;2227.20
55026;DHT22;40925;45.666;18.994;2023-02-28T08:17:40;51.20;2227.20
55026;DHT22;40925;45.666;18.994;2023-02-28T09:21:19;51.70;2227.20
55026;DHT22;40925;45.666;18.994;2023-02-28T09:23:46;51.40;2227.20
55026;DHT22;40925;45.666;18.994;2023-02-28T09:26:17;51.40;2227.20
55026;DHT22;40925;45.666;18.994;2023-02-28T09:28:46;51.30;2227.20
55026;DHT22;40925;45.666;18.994;2023-02-28T09:31:24;51.30;2227.20
55026;DHT22;40925;45.666;18.994;2023-02-28T09:33:51;51.40;2227.20
55026;DHT22;40925;45.666;18.994;2023-02-28T09:36:36;51.50;2227.20
55026;DHT22;40925;45.666;18.994;2023-02-28T09:39:04;51.50;2227.20
55026;DHT22;40925;45.666;18.994;2023-02-28T09:41:42;51.50;2227.20
55026;DHT22;40925;45.666;18.994;2023-02-28T09:44:26;51.40;2227.20
55026;DHT22;40925;45.666;18.994;2023-02-28T09:47:00;51.50;2227.20
55026;DHT22;40925;45.666;18.994;2023-02-28T09:49:44;51.60;2227.20
55026;DHT22;40925;45.666;18.994;2023-02-28T09:52:31;51.60;2227.20
55026;DHT22;40925;45.666;18.994;2023-02-28T09:55:22;51.60;2227.20
55026;DHT22;40925;45.666;18.994;2023-02-28T10:05:19;51.70;2227.20
55026;DHT22;40925;45.666;18.994;2023-02-28T10:13:02;51.80;2227.20
55026;DHT22;40925;45.666;18.994;2023-02-28T10:15:31;51.80;2227.20
55026;DHT22;40925;45.666;18.994;2023-02-28T10:18:02;51.80;2227.20
55026;DHT22;40925;45.666;18.994;2023-02-28T10:20:31;51.80;2227.20
55026;DHT22;40925;45.666;18.994;2023-02-28T10:23:17;51.80;2227.20
55026;DHT22;40925;45.666;18.994;2023-02-28T10:26:14;51.70;2227.20
55026;DHT22;40925;45.666;18.994;2023-02-28T10:28:44;51.90;2227.20
55026;DHT22;40925;45.666;18.994;2023-02-28T10:31:18;51.80;2227.20
55026;DHT22;40925;45.666;18.994;2023-02-28T10:33:45;51.80;2227.20
55026;DHT22;40925;45.666;18.994;2023-02-28T10:36:31;51.90;2227.20
55026;DHT22;40925;45.666;18.994;2023-02-28T10:38:56;51.80;2201.60
55026;DHT22;40925;45.666;18.994;2023-02-28T10:41:30;51.70;2124.80
55026;DHT22;40925;45.666;18.994;2023-02-28T10:44:23;51.80;2227.20
55026;DHT22;40925;45.666;18.994;2023-02-28T10:46:49;51.70;1920.00
55026;DHT22;40925;45.666;18.994;2023-02-28T10:51:51;51.70;2227.20
55026;DHT22;40925;45.666;18.994;2023-02-28T10:54:24;51.80;2227.20
55026;DHT22;40925;45.666;18.994;2023-02-28T10:57:22;51.80;2201.60
55026;DHT22;40925;45.666;18.994;2023-02-28T10:59:53;51.90;2227.20
55026;DHT22;40925;45.666;18.994;2023-02-28T11:02:35;51.90;2227.20
55026;DHT22;40925;45.666;18.994;2023-02-28T11:05:21;51.80;2227.20
55026;DHT22;40925;45.666;18.994;2023-02-28T11:08:06;51.90;2227.20
55026;DHT22;40925;45.666;18.994;2023-02-28T11:10:36;51.90;2227.20
55026;DHT22;40925;45.666;18.994;2023-02-28T11:13:02;52.00;2227.20
55026;DHT22;40925;45.666;18.994;2023-02-28T11:15:35;52.10;2227.20
55026;DHT22;40925;45.666;18.994;2023-02-28T11:23:43;76.80;2227.20
55026;DHT22;40925;45.666;18.994;2023-02-28T11:26:09;76.80;2227.20
55026;DHT22;40925;45.666;18.994;2023-02-28T11:28:38;76.90;2227.20
55026;DHT22;40925;45.666;18.994;2023-02-28T11:33:47;77.00;2227.20
55026;DHT22;40925;45.666;18.994;2023-02-28T11:36:22;77.10;2227.20
55026;DHT22;40925;45.666;18.994;2023-02-28T11:38:51;77.10;2227.20
55026;DHT22;40925;45.666;18.994;2023-02-28T11:51:39;77.50;2227.20
55026;DHT22;40925;45.666;18.994;2023-02-28T11:57:32;77.60;2227.20
55026;DHT22;40925;45.666;18.994;2023-02-28T12:00:25;77.60;2227.20
55026;DHT22;40925;45.666;18.994;2023-02-28T12:05:58;77.30;2227.20
55026;DHT22;40925;45.666;18.994;2023-02-28T12:22:03;77.30;2227.20
55026;DHT22;40925;45.666;18.994;2023-02-28T12:26:59;77.30;1971.20
55026;DHT22;40925;45.666;18.994;2023-02-28T12:29:32;77.20;2227.20
55026;DHT22;40925;45.666;18.994;2023-02-28T12:35:00;77.30;2227.20
55026;DHT22;40925;45.666;18.994;2023-02-28T12:37:55;77.30;2227.20
55026;DHT22;40925;45.666;18.994;2023-02-28T12:40:25;77.30;2227.20
55026;DHT22;40925;45.666;18.994;2023-02-28T12:43:04;77.30;2227.20
55026;DHT22;40925;45.666;18.994;2023-02-28T12:45:46;77.30;2227.20
55026;DHT22;40925;45.666;18.994;2023-02-28T12:48:24;77.40;2227.20
55026;DHT22;40925;45.666;18.994;2023-02-28T12:50:51;77.50;2227.20
55026;DHT22;40925;45.666;18.994;2023-02-28T12:53:35;77.50;2227.20
55026;DHT22;40925;45.666;18.994;2023-02-28T13:07:45;77.60;2176.00
55026;DHT22;40925;45.666;18.994;2023-02-28T13:10:15;77.60;1945.60
55026;DHT22;40925;45.666;18.994;2023-02-28T13:12:53;77.60;2227.20
55026;DHT22;40925;45.666;18.994;2023-02-28T13:15:20;77.60;2227.20
55026;DHT22;40925;45.666;18.994;2023-02-28T13:17:56;77.60;1868.80
55026;DHT22;40925;45.666;18.994;2023-02-28T13:20:25;77.50;1843.20
55026;DHT22;40925;45.666;18.994;2023-02-28T13:22:54;77.50;2227.20
55026;DHT22;40925;45.666;18.994;2023-02-28T13:28:11;77.40;2227.20
55026;DHT22;40925;45.666;18.994;2023-02-28T13:34:04;77.30;2227.20
55026;DHT22;40925;45.666;18.994;2023-02-28T13:36:28;77.30;2176.00
55026;DHT22;40925;45.666;18.994;2023-02-28T13:39:45;77.30;2227.20
55026;DHT22;40925;45.666;18.994;2023-02-28T13:41:44;77.30;2227.20
55026;DHT22;40925;45.666;18.994;2023-02-28T13:44:24;77.20;2227.20
55026;DHT22;40925;45.666;18.994;2023-02-28T14:00:19;77.20;2227.20
55026;DHT22;40925;45.666;18.994;2023-02-28T14:05:24;77.10;2227.20
55026;DHT22;40925;45.666;18.994;2023-02-28T14:08:15;77.10;2227.20
55026;DHT22;40925;45.666;18.994;2023-02-28T14:11:06;77.20;2227.20
55026;DHT22;40925;45.666;18.994;2023-02-28T14:13:44;77.20;2227.20
55026;DHT22;40925;45.666;18.994;2023-02-28T14:16:20;77.20;2227.20
55026;DHT22;40925;45.666;18.994;2023-02-28T14:21:24;77.30;2227.20
55026;DHT22;40925;45.666;18.994;2023-02-28T14:38:24;77.30;2227.20
55026;DHT22;40925;45.666;18.994;2023-02-28T14:40:52;77.30;2227.20
55026;DHT22;40925;45.666;18.994;2023-02-28T14:43:25;77.20;2227.20
55026;DHT22;40925;45.666;18.994;2023-02-28T14:45:57;77.20;2227.20
55026;DHT22;40925;45.666;18.994;2023-02-28T14:48:25;77.20;2227.20
55026;DHT22;40925;45.666;18.994;2023-02-28T14:50:55;77.20;2227.20
55026;DHT22;40925;45.666;18.994;2023-02-28T14:53:24;77.20;2227.20
55026;DHT22;40925;45.666;18.994;2023-02-28T14:55:51;77.20;2227.20
55026;DHT22;40925;45.666;18.994;2023-02-28T14:58:30;77.20;2227.20
55026;DHT22;40925;45.666;18.994;2023-02-28T15:00:59;77.10;2227.20
55026;DHT22;40925;45.666;18.994;2023-02-28T15:03:35;77.20;2227.20
55026;DHT22;40925;45.666;18.994;2023-02-28T15:06:12;77.20;2227.20
55026;DHT22;40925;45.666;18.994;2023-02-28T15:08:38;77.20;2227.20
55026;DHT22;40925;45.666;18.994;2023-02-28T15:11:05;77.20;2227.20
55026;DHT22;40925;45.666;18.994;2023-02-28T15:13:48;77.10;2227.20
55026;DHT22;40925;45.666;18.994;2023-02-28T15:16:22;77.10;2227.20
55026;DHT22;40925;45.666;18.994;2023-02-28T15:18:53;77.10;2227.20
55026;DHT22;40925;45.666;18.994;2023-02-28T15:21:31;77.10;2227.20
55026;DHT22;40925;45.666;18.994;2023-02-28T15:23:59;77.10;2227.20
55026;DHT22;40925;45.666;18.994;2023-02-28T15:26:37;77.10;2227.20
55026;DHT22;40925;45.666;18.994;2023-02-28T15:29:12;77.20;2227.20
55026;DHT22;40925;45.666;18.994;2023-02-28T15:31:51;77.20;2227.20
55026;DHT22;40925;45.666;18.994;2023-02-28T15:34:26;77.20;2227.20
55026;DHT22;40925;45.666;18.994;2023-02-28T15:36:52;77.10;2227.20
55026;DHT22;40925;45.666;18.994;2023-02-28T15:39:22;77.10;2227.20
55026;DHT22;40925;45.666;18.994;2023-02-28T15:41:49;77.10;2227.20
55026;DHT22;40925;45.666;18.994;2023-02-28T15:44:28;77.30;2227.20
55026;DHT22;40925;45.666;18.994;2023-02-28T15:47:14;77.10;2227.20
55026;DHT22;40925;45.666;18.994;2023-02-28T15:54:52;77.10;2227.20
55026;DHT22;40925;45.666;18.994;2023-02-28T15:57:25;77.10;2227.20
55026;DHT22;40925;45.666;18.994;2023-02-28T16:00:00;77.20;2227.20
55026;DHT22;40925;45.666;18.994;2023-02-28T16:02:34;77.20;2227.20
55026;DHT22;40925;45.666;18.994;2023-02-28T16:05:01;77.20;2227.20
55026;DHT22;40925;45.666;18.994;2023-02-28T16:07:28;77.20;2227.20
55026;DHT22;40925;45.666;18.994;2023-02-28T16:09:54;77.20;2227.20
55026;DHT22;40925;45.666;18.994;2023-02-28T16:12:24;77.20;2227.20
55026;DHT22;40925;45.666;18.994;2023-02-28T16:14:52;77.20;2227.20
55026;DHT22;40925;45.666;18.994;2023-02-28T16:17:29;77.20;2227.20
55026;DHT22;40925;45.666;18.994;2023-02-28T16:19:56;77.10;2227.20
55026;DHT22;40925;45.666;18.994;2023-02-28T16:22:23;77.20;2227.20
55026;DHT22;40925;45.666;18.994;2023-02-28T16:24:49;77.10;2227.20
55026;DHT22;40925;45.666;18.994;2023-02-28T16:27:31;77.10;2227.20
55026;DHT22;40925;45.666;18.994;2023-02-28T16:29:58;77.10;2227.20
55026;DHT22;40925;45.666;18.994;2023-02-28T16:32:24;77.00;2227.20
55026;DHT22;40925;45.666;18.994;2023-02-28T16:34:50;77.00;2227.20
55026;DHT22;40925;45.666;18.994;2023-02-28T16:37:17;77.00;2227.20
55026;DHT22;40925;45.666;18.994;2023-02-28T16:39:44;76.90;2227.20
55026;DHT22;40925;45.666;18.994;2023-02-28T16:42:27;77.00;2227.20
55026;DHT22;40925;45.666;18.994;2023-02-28T16:44:54;76.90;2227.20
55026;DHT22;40925;45.666;18.994;2023-02-28T16:47:20;76.90;2227.20
55026;DHT22;40925;45.666;18.994;2023-02-28T16:49:46;77.00;2227.20
55026;DHT22;40925;45.666;18.994;2023-02-28T16:52:13;76.90;2227.20
55026;DHT22;40925;45.666;18.994;2023-02-28T16:54:40;77.20;2227.20
55026;DHT22;40925;45.666;18.994;2023-02-28T16:57:15;77.00;2227.20
55026;DHT22;40925;45.666;18.994;2023-02-28T16:59:42;76.90;2227.20
55026;DHT22;40925;45.666;18.994;2023-02-28T17:02:13;76.90;2227.20
55026;DHT22;40925;45.666;18.994;2023-02-28T17:04:39;76.90;2227.20
55026;DHT22;40925;45.666;18.994;2023-02-28T17:07:08;76.90;2227.20
55026;DHT22;40925;45.666;18.994;2023-02-28T17:09:33;77.00;2227.20
55026;DHT22;40925;45.666;18.994;2023-02-28T17:11:59;77.00;2227.20
55026;DHT22;40925;45.666;18.994;2023-02-28T17:14:25;77.00;2227.20
55026;DHT22;40925;45.666;18.994;2023-02-28T17:16:50;76.90;2227.20
55026;DHT22;40925;45.666;18.994;2023-02-28T17:19:16;76.90;2227.20
55026;DHT22;40925;45.666;18.994;2023-02-28T17:21:43;76.90;2227.20
55026;DHT22;40925;45.666;18.994;2023-02-28T17:24:09;77.00;2227.20
55026;DHT22;40925;45.666;18.994;2023-02-28T17:26:41;76.90;2227.20
55026;DHT22;40925;45.666;18.994;2023-02-28T17:29:18;76.90;2227.20
55026;DHT22;40925;45.666;18.994;2023-02-28T17:31:45;77.00;2227.20
55026;DHT22;40925;45.666;18.994;2023-02-28T17:34:11;77.00;2227.20
55026;DHT22;40925;45.666;18.994;2023-02-28T17:36:46;77.00;2227.20
55026;DHT22;40925;45.666;18.994;2023-02-28T17:39:14;77.00;2227.20
55026;DHT22;40925;45.666;18.994;2023-02-28T17:41:41;77.00;2227.20
55026;DHT22;40925;45.666;18.994;2023-02-28T17:44:07;77.10;2227.20
55026;DHT22;40925;45.666;18.994;2023-02-28T17:46:34;77.00;2227.20
55026;DHT22;40925;45.666;18.994;2023-02-28T17:49:00;77.00;2227.20
55026;DHT22;40925;45.666;18.994;2023-02-28T17:52:03;76.90;2227.20
55026;DHT22;40925;45.666;18.994;2023-02-28T17:54:29;76.90;2227.20
55026;DHT22;40925;45.666;18.994;2023-02-28T17:56:54;77.00;2227.20
55026;DHT22;40925;45.666;18.994;2023-02-28T17:59:20;77.00;2227.20
55026;DHT22;40925;45.666;18.994;2023-02-28T18:01:46;77.00;2227.20
55026;DHT22;40925;45.666;18.994;2023-02-28T18:04:12;77.00;2227.20
55026;DHT22;40925;45.666;18.994;2023-02-28T18:06:43;76.90;2227.20
55026;DHT22;40925;45.666;18.994;2023-02-28T18:09:14;77.00;2227.20
55026;DHT22;40925;45.666;18.994;2023-02-28T18:11:40;77.00;2227.20
55026;DHT22;40925;45.666;18.994;2023-02-28T18:14:13;77.00;2227.20
55026;DHT22;40925;45.666;18.994;2023-02-28T18:16:40;77.30;2227.20
55026;DHT22;40925;45.666;18.994;2023-02-28T18:19:06;76.90;2227.20
55026;DHT22;40925;45.666;18.994;2023-02-28T18:21:33;76.90;2227.20
55026;DHT22;40925;45.666;18.994;2023-02-28T18:23:58;76.90;2227.20
55026;DHT22;40925;45.666;18.994;2023-02-28T18:26:24;76.90;2227.20
55026;DHT22;40925;45.666;18.994;2023-02-28T18:28:50;76.90;2227.20
55026;DHT22;40925;45.666;18.994;2023-02-28T18:31:17;77.00;2227.20
55026;DHT22;40925;45.666;18.994;2023-02-28T18:33:47;77.00;2227.20
55026;DHT22;40925;45.666;18.994;2023-02-28T18:36:12;77.10;2227.20
55026;DHT22;40925;45.666;18.994;2023-02-28T18:38:39;77.00;2227.20
55026;DHT22;40925;45.666;18.994;2023-02-28T18:41:06;77.00;2227.20
55026;DHT22;40925;45.666;18.994;2023-02-28T18:43:33;77.10;2227.20
55026;DHT22;40925;45.666;18.994;2023-02-28T18:46:11;77.00;2227.20
55026;DHT22;40925;45.666;18.994;2023-02-28T18:48:38;77.00;2227.20
55026;DHT22;40925;45.666;18.994;2023-02-28T18:53:34;77.00;2227.20
55026;DHT22;40925;45.666;18.994;2023-02-28T18:56:01;77.00;2227.20
55026;DHT22;40925;45.666;18.994;2023-02-28T18:58:27;77.00;2227.20
55026;DHT22;40925;45.666;18.994;2023-02-28T19:00:53;77.00;2227.20
55026;DHT22;40925;45.666;18.994;2023-02-28T19:03:19;77.00;2227.20
55026;DHT22;40925;45.666;18.994;2023-02-28T19:05:45;77.00;2227.20